Queen Of Burnaby — VCVV — position and weather

sailwx.info

Track history (hours):
 
Tides and Currents Weather Stations Pressure Air Temp Water Temp Dewpoint Dewpoint Depression Visibility Wind Speed Wind Dir Waves Ship Positions

Queen Of Burnaby

Last reported at 2017-Mar-24 05:32 UTC. Time now 2017-Mar-24 06:15 UTC.
Position N 49°44' W 124°55'.

Length 130 m; draft 4 m.

MMSI: 316001246.

Date/timePositionNaut miles runAvg speedWind from/ knotsBaromVisibWave heightAir tempDewpointWater temp
2017-Mar-24 05:32N 49°44' W 124°55'9 9.7
2017-Mar-24 04:33N 49°47' W 124°41'5 5.4
2017-Mar-24 03:33N 49°50' W 124°34'1211.7
2017-Mar-24 02:33N 49°45' W 124°51'1 1.4
2017-Mar-24 01:34N 49°44' W 124°50'1010.0
2017-Mar-24 00:34N 49°49' W 124°37'0 0.3
2017-Mar-23 23:33N 49°49' W 124°37'10 9.9
2017-Mar-23 22:33N 49°45' W 124°51'3 2.6
2017-Mar-23 21:24N 49°44' W 124°55'0 0.0
2017-Mar-23 20:33N 49°44' W 124°55'7 7.3
2017-Mar-23 19:33N 49°46' W 124°45'9 9.0
2017-Mar-23 18:33N 49°50' W 124°32'10 9.8
2017-Mar-23 17:33N 49°47' W 124°46'7 6.5
2017-Mar-23 16:32N 49°44' W 124°55'1111.3
2017-Mar-23 15:33N 49°48' W 124°39'5 4.5
2017-Mar-23 14:33N 49°50' W 124°33'1413.8
2017-Mar-23 13:33N 49°45' W 124°53'2 1.8
2017-Mar-23 12:33N 49°44' W 124°55'0 0.0
2017-Mar-23 11:33N 49°44' W 124°55'0 0.0
2017-Mar-23 10:33N 49°44' W 124°55'0 0.0
2017-Mar-23 09:33N 49°44' W 124°55'0 0.0
2017-Mar-23 08:30N 49°44' W 124°55'0 0.0
2017-Mar-23 07:33N 49°44' W 124°55'0 0.0
2017-Mar-23 06:21N 49°44' W 124°55'0 0.0
2017-Mar-23 05:33N 49°44' W 124°55'1111.3
2017-Mar-23 04:34N 49°48' W 124°39'5 5.0
2017-Mar-23 03:33N 49°50' W 124°32'1312.6
2017-Mar-23 02:34N 49°46' W 124°50'4 3.6
2017-Mar-23 01:33N 49°44' W 124°55'1212.3
2017-Mar-23 00:33N 49°49' W 124°38'2 2.2
2017-Mar-22 23:33N 49°50' W 124°35'1111.3
2017-Mar-22 22:33N 49°45' W 124°50'3 3.1
2017-Mar-22 21:28N 49°44' W 124°55'0 0.0
2017-Mar-22 20:16N 49°44' W 124°55'6 8.9
2017-Mar-22 19:34N 49°47' W 124°46'10 9.7
2017-Mar-22 18:32N 49°50' W 124°32'10 9.7
2017-Mar-22 17:33N 49°46' W 124°45'7 6.7
2017-Mar-22 16:32N 49°44' W 124°55'1111.3
2017-Mar-22 15:33N 49°48' W 124°39'4 4.4
2017-Mar-22 14:33N 49°50' W 124°33'1313.4
2017-Mar-22 13:33N 49°45' W 124°53'2 2.1
2017-Mar-22 12:33N 49°44' W 124°55'0 0.0
2017-Mar-22 11:18N 49°44' W 124°55'0 0.0
2017-Mar-22 10:30N 49°44' W 124°55'0 0.0
2017-Mar-22 09:30N 49°44' W 124°55'0 0.0
2017-Mar-22 08:18N 49°44' W 124°55'0 0.0
2017-Mar-22 07:30N 49°44' W 124°55'0 0.0
2017-Mar-22 06:30N 49°44' W 124°55'0 0.0
2017-Mar-22 05:30N 49°44' W 124°55'6 6.8
2017-Mar-22 04:33N 49°47' W 124°46'10 9.7
2017-Mar-22 03:33N 49°50' W 124°32'1313.1
2017-Mar-22 02:33N 49°46' W 124°51'3 3.1
2017-Mar-22 01:32N 49°44' W 124°55'1212.5
2017-Mar-22 00:33N 49°49' W 124°38'4 3.5
2017-Mar-21 23:33N 49°50' W 124°33'1312.9
2017-Mar-21 22:33N 49°46' W 124°51'3 1.4
2017-Mar-21 20:28N 49°44' W 124°55'7 7.6
2017-Mar-21 19:34N 49°47' W 124°45'9 9.1
2017-Mar-21 18:32N 49°50' W 124°32'9 9.4
2017-Mar-21 17:33N 49°47' W 124°45'7 6.7
2017-Mar-21 16:31N 49°44' W 124°55'1111.7
2017-Mar-21 15:33N 49°48' W 124°39'4 4.4
2017-Mar-21 14:33N 49°50' W 124°33'1413.7
2017-Mar-21 13:33N 49°45' W 124°53'2 1.9
2017-Mar-21 12:31N 49°44' W 124°55'0 0.0
2017-Mar-21 11:31N 49°44' W 124°55'0 0.0
2017-Mar-21 10:31N 49°44' W 124°55'0 0.0
2017-Mar-21 09:31N 49°44' W 124°55'0 0.0
2017-Mar-21 08:31N 49°44' W 124°55'0 0.0
2017-Mar-21 07:31N 49°44' W 124°55'0 0.0
2017-Mar-21 06:31N 49°44' W 124°55'0 0.0
2017-Mar-21 05:31N 49°44' W 124°55'5 5.6
2017-Mar-21 04:33N 49°47' W 124°48'1110.9
2017-Mar-21 03:33N 49°50' W 124°32'1312.9
2017-Mar-21 02:34N 49°46' W 124°51'3 3.3
2017-Mar-21 01:33N 49°44' W 124°55'1212.3
2017-Mar-21 00:33N 49°49' W 124°38'3 3.4
2017-Mar-20 23:33N 49°50' W 124°33'1313.2
2017-Mar-20 22:33N 49°45' W 124°52'3 2.2
2017-Mar-20 21:24N 49°44' W 124°55'0 0.0
2017-Mar-20 20:30N 49°44' W 124°55'7 7.8
2017-Mar-20 19:33N 49°47' W 124°45'9 8.6
2017-Mar-20 18:31N 49°50' W 124°32'1010.6
2017-Mar-20 17:33N 49°47' W 124°47'6 6.0
2017-Mar-20 16:33N 49°44' W 124°55'1211.8
2017-Mar-20 15:33N 49°49' W 124°38'4 3.8
2017-Mar-20 14:33N 49°50' W 124°33'1313.5
2017-Mar-20 13:33N 49°45' W 124°52'2 2.1
2017-Mar-20 12:32N 49°44' W 124°55'0 0.0
2017-Mar-20 11:26N 49°44' W 124°55'0 0.0
2017-Mar-20 10:26N 49°44' W 124°55'0 0.0
2017-Mar-20 09:32N 49°44' W 124°55'0 0.0
2017-Mar-20 08:29N 49°44' W 124°55'0 0.0
2017-Mar-20 07:29N 49°44' W 124°55'0 0.0
2017-Mar-20 06:32N 49°44' W 124°55'0 0.0
2017-Mar-20 05:29N 49°44' W 124°55'1010.4
2017-Mar-20 04:33N 49°48' W 124°41'6 6.3
2017-Mar-20 03:34N 49°50' W 124°32'1515.3
2017-Mar-20 02:33N 49°45' W 124°55'1 0.5
2017-Mar-20 01:33N 49°44' W 124°55'1212.2
2017-Mar-20 00:34N 49°49' W 124°38'4 3.9
2017-Mar-19 23:33N 49°50' W 124°32'1413.7
2017-Mar-19 22:33N 49°45' W 124°52'2 2.3
2017-Mar-19 21:31N 49°44' W 124°55'0 0.0
2017-Mar-19 20:31N 49°44' W 124°55'7 7.6
2017-Mar-19 19:33N 49°47' W 124°45'9 8.9
2017-Mar-19 18:33N 49°50' W 124°32'10 9.8
2017-Mar-19 17:33N 49°47' W 124°46'6 6.4
2017-Mar-19 16:33N 49°44' W 124°55'1110.6
2017-Mar-19 15:33N 49°48' W 124°40'5 5.4
2017-Mar-19 14:33N 49°50' W 124°32'1414.0
2017-Mar-19 13:34N 49°45' W 124°53'2 2.0
2017-Mar-19 12:33N 49°44' W 124°55'0 0.0
2017-Mar-19 11:33N 49°44' W 124°55'0 0.0
2017-Mar-19 10:30N 49°44' W 124°55'0 0.0
2017-Mar-19 09:33N 49°44' W 124°55'0 0.0
2017-Mar-19 08:09N 49°44' W 124°55'0 0.0
2017-Mar-19 07:27N 49°44' W 124°55'0 0.0
2017-Mar-19 06:27N 49°44' W 124°55'0 0.0
2017-Mar-19 05:30N 49°44' W 124°55'5 5.7
2017-Mar-19 04:33N 49°47' W 124°48'1110.9
2017-Mar-19 03:33N 49°50' W 124°32'1313.0
2017-Mar-19 02:33N 49°46' W 124°51'3 3.2
2017-Mar-19 01:33N 49°44' W 124°55'1212.1
2017-Mar-19 00:33N 49°49' W 124°38'4 4.1
2017-Mar-18 23:33N 49°50' W 124°32'1313.5
2017-Mar-18 22:33N 49°46' W 124°52'3 2.5
2017-Mar-18 21:29N 49°44' W 124°55'0 0.0
2017-Mar-18 20:20N 49°44' W 124°55'5 6.8
2017-Mar-18 19:33N 49°47' W 124°48'1111.1
2017-Mar-18 18:33N 49°50' W 124°32'1010.0
2017-Mar-18 17:33N 49°47' W 124°47'6 6.2
2017-Mar-18 16:33N 49°44' W 124°55'1010.4
2017-Mar-18 15:33N 49°48' W 124°40'6 5.7
2017-Mar-18 14:34N 49°50' W 124°32'1514.8
2017-Mar-18 13:33N 49°45' W 124°54'1 1.3
2017-Mar-18 12:33N 49°44' W 124°55'0 0.0
2017-Mar-18 11:33N 49°44' W 124°55'0 0.0
2017-Mar-18 10:33N 49°44' W 124°55'0 0.0
2017-Mar-18 09:28N 49°44' W 124°55'0 0.0
2017-Mar-18 08:33N 49°44' W 124°55'0 0.0
2017-Mar-18 07:33N 49°44' W 124°55'0 0.0
2017-Mar-18 06:33N 49°44' W 124°55'0 0.0
2017-Mar-18 05:33N 49°44' W 124°55'7 7.4
2017-Mar-18 04:34N 49°47' W 124°45'9 8.8
2017-Mar-18 03:33N 49°50' W 124°32'1313.3
2017-Mar-18 02:34N 49°46' W 124°51'3 2.9
2017-Mar-18 01:33N 49°44' W 124°55'1212.3
2017-Mar-18 00:33N 49°49' W 124°38'4 3.8
2017-Mar-17 23:33N 49°50' W 124°32'1313.0
2017-Mar-17 22:33N 49°46' W 124°51'3 2.9
2017-Mar-17 21:31N 49°44' W 124°55'0 0.0
2017-Mar-17 20:31N 49°44' W 124°55'8 8.5
2017-Mar-17 19:33N 49°47' W 124°44'8 8.1
2017-Mar-17 18:33N 49°50' W 124°32'1312.5
2017-Mar-17 17:33N 49°45' W 124°50'3 2.6
2017-Mar-17 16:33N 49°47' W 124°53'1413.8
2017-Mar-17 15:33N 49°50' W 124°32'6 6.5
2017-Mar-17 14:33N 49°47' W 124°41'10 9.7
2017-Mar-17 13:33N 49°44' W 124°55'0 0.0
2017-Mar-17 12:33N 49°44' W 124°55'0 0.0
2017-Mar-17 11:21N 49°44' W 124°55'0 0.0
2017-Mar-17 10:30N 49°44' W 124°55'0 0.0
2017-Mar-17 09:30N 49°44' W 124°55'0 0.0
2017-Mar-17 08:33N 49°44' W 124°55'0 0.0
2017-Mar-17 07:33N 49°44' W 124°55'0 0.0
2017-Mar-17 06:30N 49°44' W 124°55'0 0.1
2017-Mar-17 05:33N 49°44' W 124°55'1010.4
2017-Mar-17 04:33N 49°47' W 124°40'6 5.9
2017-Mar-17 03:33N 49°50' W 124°32'1313.1
2017-Mar-17 02:33N 49°46' W 124°51'3 3.1
2017-Mar-17 01:33N 49°44' W 124°55'1212.0
2017-Mar-17 00:34N 49°49' W 124°38'4 4.1
2017-Mar-16 23:33N 49°50' W 124°32'1313.2
2017-Mar-16 22:34N 49°46' W 124°51'3 2.6
2017-Mar-16 21:28N 49°44' W 124°55'0 0.0
2017-Mar-16 20:22N 49°44' W 124°55'8 9.4
2017-Mar-16 19:33N 49°47' W 124°45'9 8.7
2017-Mar-16 18:33N 49°50' W 124°32'1010.3
2017-Mar-16 17:33N 49°46' W 124°47'6 5.8
2017-Mar-16 16:33N 49°44' W 124°55'1212.1
2017-Mar-16 15:33N 49°49' W 124°38'3 2.8
2017-Mar-16 14:33N 49°50' W 124°34'1312.8
2017-Mar-16 13:34N 49°45' W 124°53'2 1.8
2017-Mar-16 12:29N 49°44' W 124°55'0 0.0
2017-Mar-16 11:29N 49°44' W 124°55'0 0.0
2017-Mar-16 09:32N 49°44' W 124°55'0 0.0
2017-Mar-16 08:29N 49°44' W 124°55'0 0.0
2017-Mar-16 07:05N 49°44' W 124°55'0 0.0
2017-Mar-16 06:29N 49°44' W 124°55'0 0.0
2017-Mar-16 05:11N 49°44' W 124°55'5 8.6
2017-Mar-16 04:34N 49°47' W 124°48'11 9.9
2017-Mar-16 03:27N 49°50' W 124°32'1011.2
2017-Mar-16 02:33N 49°47' W 124°47'6 3.1
2017-Mar-16 00:33N 49°44' W 124°55'0 0.0
2017-Mar-15 21:06N 49°44' W 124°55'0 0.0
2017-Mar-15 20:24N 49°44' W 124°55'8 9.6
2017-Mar-15 19:33N 49°48' W 124°44'8 8.1
2017-Mar-15 18:33N 49°50' W 124°32'1010.4
2017-Mar-15 17:33N 49°47' W 124°47'6 5.8
2017-Mar-15 16:33N 49°44' W 124°55'1211.7
2017-Mar-15 15:33N 49°48' W 124°38'3 3.2
2017-Mar-15 14:33N 49°50' W 124°34'1313.4
2017-Mar-15 13:33N 49°45' W 124°53'1 1.3
2017-Mar-15 12:29N 49°44' W 124°55'0 0.0
2017-Mar-15 11:29N 49°44' W 124°55'0 0.0
2017-Mar-15 10:29N 49°44' W 124°55'0 0.0
2017-Mar-15 09:14N 49°44' W 124°55'0 0.0
2017-Mar-15 08:32N 49°44' W 124°55'0 0.0
2017-Mar-15 07:29N 49°44' W 124°55'0 0.0
2017-Mar-15 06:32N 49°44' W 124°55'0 0.0
2017-Mar-15 05:32N 49°44' W 124°55'5 5.1
2017-Mar-15 04:34N 49°47' W 124°49'1111.3
2017-Mar-15 03:33N 49°50' W 124°32'1312.6
2017-Mar-15 02:33N 49°46' W 124°50'4 3.6
2017-Mar-15 01:34N 49°44' W 124°55'1211.8
2017-Mar-15 00:33N 49°49' W 124°38'4 4.0
2017-Mar-14 23:33N 49°50' W 124°33'1312.7
2017-Mar-14 22:33N 49°46' W 124°51'3 3.0
2017-Mar-14 21:32N 49°44' W 124°55'0 0.0
2017-Mar-14 20:21N 49°44' W 124°55'810.4
2017-Mar-14 19:33N 49°47' W 124°44'8 8.0
2017-Mar-14 18:33N 49°50' W 124°32'1110.6
2017-Mar-14 17:33N 49°47' W 124°47'6 5.5
2017-Mar-14 16:32N 49°44' W 124°55'1313.6
2017-Mar-14 15:33N 49°49' W 124°36'2 1.7
2017-Mar-14 14:33N 49°50' W 124°34'1313.2
2017-Mar-14 13:33N 49°45' W 124°53'2 1.5
2017-Mar-14 12:26N 49°44' W 124°55'0 0.0
2017-Mar-14 11:14N 49°44' W 124°55'0 0.0
2017-Mar-14 09:26N 49°44' W 124°55'0 0.0
2017-Mar-14 08:20N 49°44' W 124°55'0 0.0
2017-Mar-14 07:20N 49°44' W 124°55'  
Track history (hours):
 
Tides and Currents Weather Stations Pressure Air Temp Water Temp Dewpoint Dewpoint Depression Visibility Wind Speed Wind Dir Waves Ship Positions

Queen Of Burnaby

Last reported at 2017-Mar-24 05:32 UTC. Time now 2017-Mar-24 06:15 UTC.
Position N 49°44' W 124°55'.

Length 130 m; draft 4 m.

MMSI: 316001246.

Date/timePositionNaut miles runAvg speedWind from/ knotsBaromVisibWave heightAir tempDewpointWater temp
2017-Mar-24 05:32N 49°44' W 124°55'9 9.7
2017-Mar-24 04:33N 49°47' W 124°41'5 5.4
2017-Mar-24 03:33N 49°50' W 124°34'1211.7
2017-Mar-24 02:33N 49°45' W 124°51'1 1.4
2017-Mar-24 01:34N 49°44' W 124°50'1010.0
2017-Mar-24 00:34N 49°49' W 124°37'0 0.3
2017-Mar-23 23:33N 49°49' W 124°37'10 9.9
2017-Mar-23 22:33N 49°45' W 124°51'3 2.6
2017-Mar-23 21:24N 49°44' W 124°55'0 0.0
2017-Mar-23 20:33N 49°44' W 124°55'7 7.3
2017-Mar-23 19:33N 49°46' W 124°45'9 9.0
2017-Mar-23 18:33N 49°50' W 124°32'10 9.8
2017-Mar-23 17:33N 49°47' W 124°46'7 6.5
2017-Mar-23 16:32N 49°44' W 124°55'1111.3
2017-Mar-23 15:33N 49°48' W 124°39'5 4.5
2017-Mar-23 14:33N 49°50' W 124°33'1413.8
2017-Mar-23 13:33N 49°45' W 124°53'2 1.8
2017-Mar-23 12:33N 49°44' W 124°55'0 0.0
2017-Mar-23 11:33N 49°44' W 124°55'0 0.0
2017-Mar-23 10:33N 49°44' W 124°55'0 0.0
2017-Mar-23 09:33N 49°44' W 124°55'0 0.0
2017-Mar-23 08:30N 49°44' W 124°55'0 0.0
2017-Mar-23 07:33N 49°44' W 124°55'0 0.0
2017-Mar-23 06:21N 49°44' W 124°55'0 0.0
2017-Mar-23 05:33N 49°44' W 124°55'1111.3
2017-Mar-23 04:34N 49°48' W 124°39'5 5.0
2017-Mar-23 03:33N 49°50' W 124°32'1312.6
2017-Mar-23 02:34N 49°46' W 124°50'4 3.6
2017-Mar-23 01:33N 49°44' W 124°55'1212.3
2017-Mar-23 00:33N 49°49' W 124°38'2 2.2
2017-Mar-22 23:33N 49°50' W 124°35'1111.3
2017-Mar-22 22:33N 49°45' W 124°50'3 3.1
2017-Mar-22 21:28N 49°44' W 124°55'0 0.0
2017-Mar-22 20:16N 49°44' W 124°55'6 8.9
2017-Mar-22 19:34N 49°47' W 124°46'10 9.7
2017-Mar-22 18:32N 49°50' W 124°32'10 9.7
2017-Mar-22 17:33N 49°46' W 124°45'7 6.7
2017-Mar-22 16:32N 49°44' W 124°55'1111.3
2017-Mar-22 15:33N 49°48' W 124°39'4 4.4
2017-Mar-22 14:33N 49°50' W 124°33'1313.4
2017-Mar-22 13:33N 49°45' W 124°53'2 2.1
2017-Mar-22 12:33N 49°44' W 124°55'0 0.0
2017-Mar-22 11:18N 49°44' W 124°55'0 0.0
2017-Mar-22 10:30N 49°44' W 124°55'0 0.0
2017-Mar-22 09:30N 49°44' W 124°55'0 0.0
2017-Mar-22 08:18N 49°44' W 124°55'0 0.0
2017-Mar-22 07:30N 49°44' W 124°55'0 0.0
2017-Mar-22 06:30N 49°44' W 124°55'0 0.0
2017-Mar-22 05:30N 49°44' W 124°55'6 6.8
2017-Mar-22 04:33N 49°47' W 124°46'10 9.7
2017-Mar-22 03:33N 49°50' W 124°32'1313.1
2017-Mar-22 02:33N 49°46' W 124°51'3 3.1
2017-Mar-22 01:32N 49°44' W 124°55'1212.5
2017-Mar-22 00:33N 49°49' W 124°38'4 3.5
2017-Mar-21 23:33N 49°50' W 124°33'1312.9
2017-Mar-21 22:33N 49°46' W 124°51'3 1.4
2017-Mar-21 20:28N 49°44' W 124°55'7 7.6
2017-Mar-21 19:34N 49°47' W 124°45'9 9.1
2017-Mar-21 18:32N 49°50' W 124°32'9 9.4
2017-Mar-21 17:33N 49°47' W 124°45'7 6.7
2017-Mar-21 16:31N 49°44' W 124°55'1111.7
2017-Mar-21 15:33N 49°48' W 124°39'4 4.4
2017-Mar-21 14:33N 49°50' W 124°33'1413.7
2017-Mar-21 13:33N 49°45' W 124°53'2 1.9
2017-Mar-21 12:31N 49°44' W 124°55'0 0.0
2017-Mar-21 11:31N 49°44' W 124°55'0 0.0
2017-Mar-21 10:31N 49°44' W 124°55'0 0.0
2017-Mar-21 09:31N 49°44' W 124°55'0 0.0
2017-Mar-21 08:31N 49°44' W 124°55'0 0.0
2017-Mar-21 07:31N 49°44' W 124°55'0 0.0
2017-Mar-21 06:31N 49°44' W 124°55'0 0.0
2017-Mar-21 05:31N 49°44' W 124°55'5 5.6
2017-Mar-21 04:33N 49°47' W 124°48'1110.9
2017-Mar-21 03:33N 49°50' W 124°32'1312.9
2017-Mar-21 02:34N 49°46' W 124°51'3 3.3
2017-Mar-21 01:33N 49°44' W 124°55'1212.3
2017-Mar-21 00:33N 49°49' W 124°38'3 3.4
2017-Mar-20 23:33N 49°50' W 124°33'1313.2
2017-Mar-20 22:33N 49°45' W 124°52'3 2.2
2017-Mar-20 21:24N 49°44' W 124°55'0 0.0
2017-Mar-20 20:30N 49°44' W 124°55'7 7.8
2017-Mar-20 19:33N 49°47' W 124°45'9 8.6
2017-Mar-20 18:31N 49°50' W 124°32'1010.6
2017-Mar-20 17:33N 49°47' W 124°47'6 6.0
2017-Mar-20 16:33N 49°44' W 124°55'1211.8
2017-Mar-20 15:33N 49°49' W 124°38'4 3.8
2017-Mar-20 14:33N 49°50' W 124°33'1313.5
2017-Mar-20 13:33N 49°45' W 124°52'2 2.1
2017-Mar-20 12:32N 49°44' W 124°55'0 0.0
2017-Mar-20 11:26N 49°44' W 124°55'0 0.0
2017-Mar-20 10:26N 49°44' W 124°55'0 0.0
2017-Mar-20 09:32N 49°44' W 124°55'0 0.0
2017-Mar-20 08:29N 49°44' W 124°55'0 0.0
2017-Mar-20 07:29N 49°44' W 124°55'0 0.0
2017-Mar-20 06:32N 49°44' W 124°55'0 0.0
2017-Mar-20 05:29N 49°44' W 124°55'1010.4
2017-Mar-20 04:33N 49°48' W 124°41'6 6.3
2017-Mar-20 03:34N 49°50' W 124°32'1515.3
2017-Mar-20 02:33N 49°45' W 124°55'1 0.5
2017-Mar-20 01:33N 49°44' W 124°55'1212.2
2017-Mar-20 00:34N 49°49' W 124°38'4 3.9
2017-Mar-19 23:33N 49°50' W 124°32'1413.7
2017-Mar-19 22:33N 49°45' W 124°52'2 2.3
2017-Mar-19 21:31N 49°44' W 124°55'0 0.0
2017-Mar-19 20:31N 49°44' W 124°55'7 7.6
2017-Mar-19 19:33N 49°47' W 124°45'9 8.9
2017-Mar-19 18:33N 49°50' W 124°32'10 9.8
2017-Mar-19 17:33N 49°47' W 124°46'6 6.4
2017-Mar-19 16:33N 49°44' W 124°55'1110.6
2017-Mar-19 15:33N 49°48' W 124°40'5 5.4
2017-Mar-19 14:33N 49°50' W 124°32'1414.0
2017-Mar-19 13:34N 49°45' W 124°53'2 2.0
2017-Mar-19 12:33N 49°44' W 124°55'0 0.0
2017-Mar-19 11:33N 49°44' W 124°55'0 0.0
2017-Mar-19 10:30N 49°44' W 124°55'0 0.0
2017-Mar-19 09:33N 49°44' W 124°55'0 0.0
2017-Mar-19 08:09N 49°44' W 124°55'0 0.0
2017-Mar-19 07:27N 49°44' W 124°55'0 0.0
2017-Mar-19 06:27N 49°44' W 124°55'0 0.0
2017-Mar-19 05:30N 49°44' W 124°55'5 5.7
2017-Mar-19 04:33N 49°47' W 124°48'1110.9
2017-Mar-19 03:33N 49°50' W 124°32'1313.0
2017-Mar-19 02:33N 49°46' W 124°51'3 3.2
2017-Mar-19 01:33N 49°44' W 124°55'1212.1
2017-Mar-19 00:33N 49°49' W 124°38'4 4.1
2017-Mar-18 23:33N 49°50' W 124°32'1313.5
2017-Mar-18 22:33N 49°46' W 124°52'3 2.5
2017-Mar-18 21:29N 49°44' W 124°55'0 0.0
2017-Mar-18 20:20N 49°44' W 124°55'5 6.8
2017-Mar-18 19:33N 49°47' W 124°48'1111.1
2017-Mar-18 18:33N 49°50' W 124°32'1010.0
2017-Mar-18 17:33N 49°47' W 124°47'6 6.2
2017-Mar-18 16:33N 49°44' W 124°55'1010.4
2017-Mar-18 15:33N 49°48' W 124°40'6 5.7
2017-Mar-18 14:34N 49°50' W 124°32'1514.8
2017-Mar-18 13:33N 49°45' W 124°54'1 1.3
2017-Mar-18 12:33N 49°44' W 124°55'0 0.0
2017-Mar-18 11:33N 49°44' W 124°55'0 0.0
2017-Mar-18 10:33N 49°44' W 124°55'0 0.0
2017-Mar-18 09:28N 49°44' W 124°55'0 0.0
2017-Mar-18 08:33N 49°44' W 124°55'0 0.0
2017-Mar-18 07:33N 49°44' W 124°55'0 0.0
2017-Mar-18 06:33N 49°44' W 124°55'0 0.0
2017-Mar-18 05:33N 49°44' W 124°55'7 7.4
2017-Mar-18 04:34N 49°47' W 124°45'9 8.8
2017-Mar-18 03:33N 49°50' W 124°32'1313.3
2017-Mar-18 02:34N 49°46' W 124°51'3 2.9
2017-Mar-18 01:33N 49°44' W 124°55'1212.3
2017-Mar-18 00:33N 49°49' W 124°38'4 3.8
2017-Mar-17 23:33N 49°50' W 124°32'1313.0
2017-Mar-17 22:33N 49°46' W 124°51'3 2.9
2017-Mar-17 21:31N 49°44' W 124°55'0 0.0
2017-Mar-17 20:31N 49°44' W 124°55'8 8.5
2017-Mar-17 19:33N 49°47' W 124°44'8 8.1
2017-Mar-17 18:33N 49°50' W 124°32'1312.5
2017-Mar-17 17:33N 49°45' W 124°50'3 2.6
2017-Mar-17 16:33N 49°47' W 124°53'1413.8
2017-Mar-17 15:33N 49°50' W 124°32'6 6.5
2017-Mar-17 14:33N 49°47' W 124°41'10 9.7
2017-Mar-17 13:33N 49°44' W 124°55'0 0.0
2017-Mar-17 12:33N 49°44' W 124°55'0 0.0
2017-Mar-17 11:21N 49°44' W 124°55'0 0.0
2017-Mar-17 10:30N 49°44' W 124°55'0 0.0
2017-Mar-17 09:30N 49°44' W 124°55'0 0.0
2017-Mar-17 08:33N 49°44' W 124°55'0 0.0
2017-Mar-17 07:33N 49°44' W 124°55'0 0.0
2017-Mar-17 06:30N 49°44' W 124°55'0 0.1
2017-Mar-17 05:33N 49°44' W 124°55'1010.4
2017-Mar-17 04:33N 49°47' W 124°40'6 5.9
2017-Mar-17 03:33N 49°50' W 124°32'1313.1
2017-Mar-17 02:33N 49°46' W 124°51'3 3.1
2017-Mar-17 01:33N 49°44' W 124°55'1212.0
2017-Mar-17 00:34N 49°49' W 124°38'4 4.1
2017-Mar-16 23:33N 49°50' W 124°32'1313.2
2017-Mar-16 22:34N 49°46' W 124°51'3 2.6
2017-Mar-16 21:28N 49°44' W 124°55'0 0.0
2017-Mar-16 20:22N 49°44' W 124°55'8 9.4
2017-Mar-16 19:33N 49°47' W 124°45'9 8.7
2017-Mar-16 18:33N 49°50' W 124°32'1010.3
2017-Mar-16 17:33N 49°46' W 124°47'6 5.8
2017-Mar-16 16:33N 49°44' W 124°55'1212.1
2017-Mar-16 15:33N 49°49' W 124°38'3 2.8
2017-Mar-16 14:33N 49°50' W 124°34'1312.8
2017-Mar-16 13:34N 49°45' W 124°53'2 1.8
2017-Mar-16 12:29N 49°44' W 124°55'0 0.0
2017-Mar-16 11:29N 49°44' W 124°55'0 0.0
2017-Mar-16 09:32N 49°44' W 124°55'0 0.0
2017-Mar-16 08:29N 49°44' W 124°55'0 0.0
2017-Mar-16 07:05N 49°44' W 124°55'0 0.0
2017-Mar-16 06:29N 49°44' W 124°55'0 0.0
2017-Mar-16 05:11N 49°44' W 124°55'5 8.6
2017-Mar-16 04:34N 49°47' W 124°48'11 9.9
2017-Mar-16 03:27N 49°50' W 124°32'1011.2
2017-Mar-16 02:33N 49°47' W 124°47'6 3.1
2017-Mar-16 00:33N 49°44' W 124°55'0 0.0
2017-Mar-15 21:06N 49°44' W 124°55'0 0.0
2017-Mar-15 20:24N 49°44' W 124°55'8 9.6
2017-Mar-15 19:33N 49°48' W 124°44'8 8.1
2017-Mar-15 18:33N 49°50' W 124°32'1010.4
2017-Mar-15 17:33N 49°47' W 124°47'6 5.8
2017-Mar-15 16:33N 49°44' W 124°55'1211.7
2017-Mar-15 15:33N 49°48' W 124°38'3 3.2
2017-Mar-15 14:33N 49°50' W 124°34'1313.4
2017-Mar-15 13:33N 49°45' W 124°53'1 1.3
2017-Mar-15 12:29N 49°44' W 124°55'0 0.0
2017-Mar-15 11:29N 49°44' W 124°55'0 0.0
2017-Mar-15 10:29N 49°44' W 124°55'0 0.0
2017-Mar-15 09:14N 49°44' W 124°55'0 0.0
2017-Mar-15 08:32N 49°44' W 124°55'0 0.0
2017-Mar-15 07:29N 49°44' W 124°55'0 0.0
2017-Mar-15 06:32N 49°44' W 124°55'0 0.0
2017-Mar-15 05:32N 49°44' W 124°55'5 5.1
2017-Mar-15 04:34N 49°47' W 124°49'1111.3
2017-Mar-15 03:33N 49°50' W 124°32'1312.6
2017-Mar-15 02:33N 49°46' W 124°50'4 3.6
2017-Mar-15 01:34N 49°44' W 124°55'1211.8
2017-Mar-15 00:33N 49°49' W 124°38'4 4.0
2017-Mar-14 23:33N 49°50' W 124°33'1312.7
2017-Mar-14 22:33N 49°46' W 124°51'3 3.0
2017-Mar-14 21:32N 49°44' W 124°55'0 0.0
2017-Mar-14 20:21N 49°44' W 124°55'810.4
2017-Mar-14 19:33N 49°47' W 124°44'8 8.0
2017-Mar-14 18:33N 49°50' W 124°32'1110.6
2017-Mar-14 17:33N 49°47' W 124°47'6 5.5
2017-Mar-14 16:32N 49°44' W 124°55'1313.6
2017-Mar-14 15:33N 49°49' W 124°36'2 1.7
2017-Mar-14 14:33N 49°50' W 124°34'1313.2
2017-Mar-14 13:33N 49°45' W 124°53'2 1.5
2017-Mar-14 12:26N 49°44' W 124°55'0 0.0
2017-Mar-14 11:14N 49°44' W 124°55'0 0.0
2017-Mar-14 09:26N 49°44' W 124°55'0 0.0
2017-Mar-14 08:20N 49°44' W 124°55'0 0.0
2017-Mar-14 07:20N 49°44' W 124°55'  

Dump ship's entire track history